createdAt,value
2023-01-19T00:00:12.520Z,0.20
2023-01-19T00:02:39.151Z,0.20
2023-01-19T00:05:05.980Z,0.20
2023-01-19T00:07:32.753Z,0.20
2023-01-19T00:09:59.375Z,0.10
2023-01-19T00:12:26.386Z,0.10
2023-01-19T00:14:52.966Z,0.00
2023-01-19T00:17:19.576Z,0.10
2023-01-19T00:19:46.163Z,0.00
2023-01-19T00:22:12.705Z,0.00
2023-01-19T00:24:39.261Z,0.10
2023-01-19T00:27:05.804Z,0.00
2023-01-19T00:29:32.331Z,0.00
2023-01-19T00:32:02.919Z,0.10
2023-01-19T00:34:29.506Z,0.10
2023-01-19T00:36:56.054Z,0.00
2023-01-19T00:39:22.619Z,0.00
2023-01-19T00:41:49.183Z,0.10
2023-01-19T00:44:15.758Z,0.10
2023-01-19T00:46:42.342Z,0.10
2023-01-19T00:49:08.922Z,0.20
2023-01-19T00:51:35.482Z,0.20
2023-01-19T00:54:02.115Z,0.20
2023-01-19T00:56:28.637Z,0.20
2023-01-19T00:58:55.207Z,0.20
2023-01-19T01:01:21.839Z,0.20
2023-01-19T01:04:08.290Z,0.20
2023-01-19T01:06:34.843Z,0.20
2023-01-19T01:09:01.399Z,0.20
2023-01-19T01:11:27.938Z,0.20
2023-01-19T01:13:54.508Z,0.20
2023-01-19T01:16:21.778Z,0.20
2023-01-19T01:18:48.353Z,0.10
2023-01-19T01:21:14.910Z,0.10
2023-01-19T01:23:41.481Z,0.10
2023-01-19T01:26:08.044Z,0.10
2023-01-19T01:28:34.615Z,0.10
2023-01-19T01:31:01.181Z,0.20
2023-01-19T01:33:40.543Z,0.10
2023-01-19T01:36:09.680Z,0.10
2023-01-19T01:38:36.267Z,0.10
2023-01-19T01:41:02.877Z,0.10
2023-01-19T01:43:43.920Z,0.10
2023-01-19T01:46:11.798Z,0.00
2023-01-19T01:48:40.176Z,0.10
2023-01-19T01:51:12.584Z,0.00
2023-01-19T01:53:40.696Z,0.00
2023-01-19T01:56:13.696Z,0.00
2023-01-19T01:58:40.727Z,0.00
2023-01-19T02:01:08.004Z,0.00
2023-01-19T02:03:34.852Z,0.00
2023-01-19T02:06:04.338Z,0.00
2023-01-19T02:08:47.253Z,0.00
2023-01-19T02:11:14.152Z,0.00
2023-01-19T02:13:42.659Z,0.00
2023-01-19T02:16:10.598Z,0.00
2023-01-19T02:18:37.724Z,-0.10
2023-01-19T02:21:34.232Z,-0.10
2023-01-19T02:24:01.134Z,-0.10
2023-01-19T02:26:41.221Z,-0.10
2023-01-19T02:29:10.183Z,-0.10
2023-01-19T02:31:38.654Z,-0.10
2023-01-19T02:34:07.816Z,-0.10
2023-01-19T02:36:58.082Z,-0.10
2023-01-19T02:39:42.380Z,-0.20
2023-01-19T02:42:21.033Z,-0.20
2023-01-19T02:44:50.255Z,-0.30
2023-01-19T02:47:17.016Z,-0.20
2023-01-19T02:49:43.685Z,-0.10
2023-01-19T02:52:17.836Z,-0.20
2023-01-19T02:55:03.465Z,-0.20
2023-01-19T02:58:04.834Z,-0.20
2023-01-19T03:00:55.421Z,-0.20
2023-01-19T03:03:33.851Z,-0.20
2023-01-19T03:06:30.382Z,-0.20
2023-01-19T03:09:08.290Z,-0.20
2023-01-19T03:11:39.940Z,-0.20
2023-01-19T03:14:14.502Z,-0.20
2023-01-19T03:16:51.289Z,-0.20
2023-01-19T03:19:27.621Z,-0.20
2023-01-19T03:22:19.309Z,-0.20
2023-01-19T03:24:47.948Z,-0.20
2023-01-19T03:27:29.010Z,-0.20
2023-01-19T03:30:00.138Z,-0.20
2023-01-19T03:32:35.482Z,-0.30
2023-01-19T03:35:06.972Z,-0.20
2023-01-19T03:37:36.936Z,-0.30
2023-01-19T03:40:03.888Z,-0.20
2023-01-19T03:42:30.589Z,-0.30
2023-01-19T03:44:59.759Z,-0.30
2023-01-19T03:47:26.881Z,-0.20
2023-01-19T03:49:54.237Z,-0.20
2023-01-19T03:52:31.420Z,-0.30
2023-01-19T03:54:58.114Z,-0.30
2023-01-19T03:57:24.698Z,-0.30
2023-01-19T03:59:51.325Z,-0.40
2023-01-19T04:02:17.978Z,-0.40
2023-01-19T04:04:44.594Z,-0.40
2023-01-19T04:07:11.379Z,-0.50
2023-01-19T04:09:37.955Z,-0.50
2023-01-19T04:12:04.807Z,-0.50
2023-01-19T04:14:31.343Z,-0.50
2023-01-19T04:16:57.911Z,-0.50
2023-01-19T04:19:24.524Z,-0.50
2023-01-19T04:21:51.305Z,-0.50
2023-01-19T04:24:18.504Z,-0.60
2023-01-19T04:26:45.087Z,-0.60
2023-01-19T04:29:11.655Z,-0.60
2023-01-19T04:31:38.293Z,-0.60
2023-01-19T04:34:04.838Z,-0.70
2023-01-19T04:36:31.412Z,-0.80
2023-01-19T04:38:57.927Z,-0.70
2023-01-19T04:41:24.496Z,-0.70
2023-01-19T04:43:51.047Z,-0.70
2023-01-19T04:46:17.657Z,-0.70
2023-01-19T04:48:44.215Z,-0.80
2023-01-19T04:51:10.776Z,-0.80
2023-01-19T04:53:37.535Z,-0.80
2023-01-19T04:56:04.269Z,-0.70
2023-01-19T04:58:30.831Z,-0.70
2023-01-19T05:00:57.538Z,-0.70
2023-01-19T05:03:25.779Z,-0.60
2023-01-19T05:05:53.127Z,-0.60
2023-01-19T05:08:19.670Z,-0.70
2023-01-19T05:10:47.652Z,-0.70
2023-01-19T05:13:14.221Z,-0.70
2023-01-19T05:15:40.765Z,-0.70
2023-01-19T05:18:07.308Z,-0.80
2023-01-19T05:20:33.846Z,-0.80
2023-01-19T05:23:00.639Z,-0.80
2023-01-19T05:25:27.366Z,-0.80
2023-01-19T05:27:53.927Z,-0.80
2023-01-19T05:30:20.617Z,-0.80
2023-01-19T05:32:47.199Z,-0.80
2023-01-19T05:35:13.893Z,-0.90
2023-01-19T05:37:40.692Z,-1.00
2023-01-19T05:40:08.357Z,-0.90
2023-01-19T05:42:35.851Z,-0.90
2023-01-19T05:45:02.445Z,-1.00
2023-01-19T05:47:30.050Z,-1.00
2023-01-19T05:49:56.944Z,-1.10
2023-01-19T05:52:23.537Z,-1.10
2023-01-19T05:54:50.422Z,-1.10
2023-01-19T05:57:18.003Z,-1.10
2023-01-19T05:59:44.579Z,-1.20
2023-01-19T06:02:11.199Z,-1.20
2023-01-19T06:04:37.804Z,-1.20
2023-01-19T06:07:05.408Z,-1.30
2023-01-19T06:09:32.403Z,-1.30
2023-01-19T06:11:59.097Z,-1.30
2023-01-19T06:14:26.535Z,-1.30
2023-01-19T06:16:53.082Z,-1.30
2023-01-19T06:19:19.637Z,-1.40
2023-01-19T06:21:48.829Z,-1.40
2023-01-19T06:24:16.013Z,-1.40
2023-01-19T06:26:42.544Z,-1.30
2023-01-19T06:29:10.365Z,-1.40
2023-01-19T06:31:37.141Z,-1.50
2023-01-19T06:34:04.061Z,-1.50
2023-01-19T06:36:30.674Z,-1.50
2023-01-19T06:38:57.262Z,-1.50
2023-01-19T06:41:23.823Z,-1.50
2023-01-19T06:43:50.421Z,-1.50
2023-01-19T06:46:16.972Z,-1.50
2023-01-19T06:48:43.549Z,-1.50
2023-01-19T06:51:10.114Z,-1.50
2023-01-19T06:53:36.656Z,-1.60
2023-01-19T06:56:06.708Z,-1.50
2023-01-19T06:58:35.928Z,-1.60
2023-01-19T07:01:06.654Z,-1.70
2023-01-19T07:03:37.436Z,-1.80
2023-01-19T07:06:07.352Z,-1.70
2023-01-19T07:08:40.724Z,-1.70
2023-01-19T07:11:26.101Z,-1.70
2023-01-19T07:14:00.020Z,-1.70
2023-01-19T07:16:27.000Z,-1.60
2023-01-19T07:18:53.611Z,-1.70
2023-01-19T07:21:21.020Z,-1.60
2023-01-19T07:23:52.309Z,-1.60
2023-01-19T07:26:19.781Z,-1.60
2023-01-19T07:28:49.752Z,-1.60
2023-01-19T07:31:18.072Z,-1.70
2023-01-19T07:33:45.913Z,-1.70
2023-01-19T07:36:13.359Z,-1.70
2023-01-19T07:38:40.979Z,-1.70
2023-01-19T07:41:09.994Z,-1.80
2023-01-19T07:43:36.892Z,-1.80
2023-01-19T07:46:05.014Z,-1.70
2023-01-19T07:48:32.313Z,-1.70
2023-01-19T07:51:06.544Z,-1.70
2023-01-19T07:53:33.152Z,-1.70
2023-01-19T07:56:00.420Z,-1.70
2023-01-19T07:58:27.862Z,-1.80
2023-01-19T08:00:55.424Z,-1.70
2023-01-19T08:03:22.554Z,-1.70
2023-01-19T08:05:53.373Z,-1.80
2023-01-19T08:08:20.783Z,-1.70
2023-01-19T08:10:51.035Z,-1.60
2023-01-19T08:13:18.125Z,-1.60
2023-01-19T08:15:45.484Z,-1.60
2023-01-19T08:18:12.950Z,-1.50
2023-01-19T08:20:39.703Z,-1.50
2023-01-19T08:23:06.891Z,-1.50
2023-01-19T08:25:36.772Z,-1.40
2023-01-19T08:28:06.174Z,-1.50
2023-01-19T08:30:33.246Z,-1.50
2023-01-19T08:33:00.207Z,-1.50
2023-01-19T08:35:26.941Z,-1.50
2023-01-19T08:37:53.501Z,-1.60
2023-01-19T08:40:20.245Z,-1.60
2023-01-19T08:42:46.880Z,-1.50
2023-01-19T08:45:13.516Z,-1.60
2023-01-19T08:47:40.113Z,-1.50
2023-01-19T08:50:07.226Z,-1.50
2023-01-19T08:52:33.772Z,-1.40
2023-01-19T08:55:00.319Z,-1.40
2023-01-19T08:57:27.624Z,-1.40
2023-01-19T08:59:54.223Z,-1.30
2023-01-19T09:02:20.864Z,-1.20
2023-01-19T09:04:47.495Z,-1.10
2023-01-19T09:07:14.078Z,-1.10
2023-01-19T09:09:40.671Z,-1.00
2023-01-19T09:12:07.285Z,-0.90
2023-01-19T09:14:33.932Z,-0.90
2023-01-19T09:17:00.501Z,-0.90
2023-01-19T09:19:27.089Z,-0.80
2023-01-19T09:21:54.343Z,-0.60
2023-01-19T09:24:20.956Z,-0.60
2023-01-19T09:26:47.510Z,-0.50
2023-01-19T09:29:14.054Z,-0.50
2023-01-19T09:31:40.701Z,-0.40
2023-01-19T09:34:07.280Z,-0.30
2023-01-19T09:36:33.833Z,-0.30
2023-01-19T09:39:00.451Z,-0.30
2023-01-19T09:41:27.155Z,-0.30
2023-01-19T09:44:00.652Z,-0.30
2023-01-19T09:46:38.170Z,-0.20
2023-01-19T09:49:13.491Z,-0.10
2023-01-19T09:51:44.709Z,-0.20
2023-01-19T09:54:29.847Z,-0.20
2023-01-19T09:56:56.464Z,-0.20
2023-01-19T09:59:31.395Z,-0.10
2023-01-19T10:02:06.999Z,-0.10
2023-01-19T10:04:40.660Z,-0.10
2023-01-19T10:07:29.953Z,-0.10
2023-01-19T10:10:05.546Z,0.00
2023-01-19T10:12:41.056Z,0.00
2023-01-19T10:15:37.092Z,0.00
2023-01-19T10:18:19.512Z,0.00
2023-01-19T10:20:59.831Z,0.10
2023-01-19T10:23:41.425Z,0.20
2023-01-19T10:26:23.468Z,0.20
2023-01-19T10:28:54.148Z,0.40
2023-01-19T10:31:24.202Z,0.40
2023-01-19T10:33:51.071Z,0.50
2023-01-19T10:36:21.543Z,0.60
2023-01-19T10:38:48.622Z,0.60
2023-01-19T10:41:19.648Z,0.70
2023-01-19T10:43:47.606Z,0.80
2023-01-19T10:46:21.496Z,0.90
2023-01-19T10:48:50.065Z,1.00
2023-01-19T10:51:17.063Z,1.10
2023-01-19T10:53:57.275Z,1.20
2023-01-19T10:56:36.437Z,1.20
2023-01-19T10:59:05.869Z,1.40
2023-01-19T11:01:33.699Z,1.40
2023-01-19T11:04:00.418Z,1.50
2023-01-19T11:06:29.472Z,1.40
2023-01-19T11:09:16.889Z,1.50
2023-01-19T11:11:47.090Z,1.70
2023-01-19T11:14:19.128Z,1.70
2023-01-19T11:16:49.647Z,1.80
2023-01-19T11:19:22.027Z,1.80
2023-01-19T11:21:48.889Z,2.00
2023-01-19T11:24:15.876Z,2.10
2023-01-19T11:26:45.403Z,2.10
2023-01-19T11:29:26.538Z,2.30
2023-01-19T11:31:54.779Z,2.40
2023-01-19T11:34:31.496Z,2.70
2023-01-19T11:37:18.291Z,2.80
2023-01-19T11:39:54.818Z,3.10
2023-01-19T11:42:21.936Z,3.30
2023-01-19T11:45:14.167Z,3.30
2023-01-19T11:47:48.807Z,2.90
2023-01-19T11:50:21.939Z,2.60
2023-01-19T11:52:55.181Z,2.70
2023-01-19T11:55:52.200Z,3.00
2023-01-19T11:58:19.844Z,3.50
2023-01-19T12:01:05.226Z,3.60
2023-01-19T12:03:40.680Z,3.50
2023-01-19T12:06:29.832Z,3.40
2023-01-19T12:09:12.847Z,3.30
2023-01-19T12:12:21.774Z,3.10
2023-01-19T12:15:20.829Z,2.90
2023-01-19T12:17:50.475Z,2.80
2023-01-19T12:20:41.782Z,2.70
2023-01-19T12:23:46.982Z,2.70
2023-01-19T12:26:24.563Z,2.60
2023-01-19T12:28:52.812Z,2.60
2023-01-19T12:31:21.951Z,2.70
2023-01-19T12:33:49.353Z,2.60
2023-01-19T12:36:31.247Z,2.60
2023-01-19T12:39:18.884Z,2.30
2023-01-19T12:41:46.636Z,2.30
2023-01-19T12:44:13.182Z,2.30
2023-01-19T12:46:39.709Z,2.40
2023-01-19T12:49:07.369Z,2.30
2023-01-19T12:51:34.422Z,2.30
2023-01-19T12:54:04.815Z,2.20
2023-01-19T12:56:34.343Z,2.20
2023-01-19T12:59:01.320Z,2.20
2023-01-19T13:01:28.017Z,2.20
2023-01-19T13:04:06.874Z,2.10
2023-01-19T13:06:48.798Z,2.00
2023-01-19T13:09:32.515Z,2.10
2023-01-19T13:12:14.282Z,2.10
2023-01-19T13:14:42.911Z,2.00
2023-01-19T13:17:49.715Z,2.00
2023-01-19T13:20:30.130Z,2.00
2023-01-19T13:23:16.911Z,1.90
2023-01-19T13:25:53.319Z,2.00
2023-01-19T13:28:28.440Z,2.00
2023-01-19T13:30:58.759Z,1.90
2023-01-19T13:33:28.440Z,1.90
2023-01-19T13:35:57.649Z,1.90
2023-01-19T13:38:26.142Z,1.80
2023-01-19T13:40:55.044Z,1.90
2023-01-19T13:43:28.405Z,1.80
2023-01-19T13:45:55.727Z,1.90
2023-01-19T13:48:23.531Z,1.90
2023-01-19T13:51:05.165Z,1.80
2023-01-19T13:53:32.826Z,1.80
2023-01-19T13:56:22.825Z,1.70
2023-01-19T13:59:04.993Z,1.50
2023-01-19T14:01:31.797Z,1.40
2023-01-19T14:03:59.537Z,1.30
2023-01-19T14:06:48.886Z,1.30
2023-01-19T14:09:18.566Z,1.40
2023-01-19T14:11:47.945Z,1.30
2023-01-19T14:14:27.915Z,1.40
2023-01-19T14:16:54.543Z,1.30
2023-01-19T14:19:21.154Z,1.30
2023-01-19T14:21:58.818Z,1.20
2023-01-19T14:24:25.430Z,1.20
2023-01-19T14:26:54.234Z,1.30
2023-01-19T14:29:34.789Z,1.30
2023-01-19T14:32:21.926Z,1.40
2023-01-19T14:34:57.372Z,1.30
2023-01-19T14:37:30.987Z,1.40
2023-01-19T14:40:09.449Z,1.40
2023-01-19T14:42:39.009Z,1.40
2023-01-19T14:45:15.769Z,1.40
2023-01-19T14:47:44.694Z,1.30
2023-01-19T14:50:17.067Z,1.30
2023-01-19T14:52:58.172Z,1.20
2023-01-19T14:55:47.190Z,1.10
2023-01-19T14:58:18.073Z,1.20
2023-01-19T15:00:46.271Z,1.20
2023-01-19T15:03:13.136Z,1.10
2023-01-19T15:05:45.255Z,1.10
2023-01-19T15:08:16.554Z,1.10
2023-01-19T15:10:43.791Z,1.10
2023-01-19T15:13:18.453Z,1.00
2023-01-19T15:15:45.158Z,0.90
2023-01-19T15:18:19.206Z,0.80
2023-01-19T15:20:45.804Z,0.80
2023-01-19T15:23:12.895Z,0.80
2023-01-19T15:25:40.007Z,0.80
2023-01-19T15:28:15.239Z,0.80
2023-01-19T15:30:41.946Z,0.80
2023-01-19T15:33:20.393Z,0.80
2023-01-19T15:35:47.485Z,0.80
2023-01-19T15:38:14.154Z,0.70
2023-01-19T15:40:40.822Z,0.60
2023-01-19T15:43:10.289Z,0.70
2023-01-19T15:45:53.422Z,0.60
2023-01-19T15:48:20.003Z,0.60
2023-01-19T15:50:46.582Z,0.70
2023-01-19T15:53:16.065Z,0.70
2023-01-19T15:55:42.963Z,0.70
2023-01-19T15:58:09.646Z,0.70
2023-01-19T16:00:36.244Z,0.60
2023-01-19T16:03:03.449Z,0.50
2023-01-19T16:05:42.488Z,0.50
2023-01-19T16:08:11.402Z,0.50
2023-01-19T16:10:38.048Z,0.50
2023-01-19T16:13:04.773Z,0.50
2023-01-19T16:15:31.329Z,0.50
2023-01-19T16:17:57.873Z,0.50
2023-01-19T16:20:24.963Z,0.50
2023-01-19T16:22:51.611Z,0.40
2023-01-19T16:25:18.280Z,0.40
2023-01-19T16:27:44.835Z,0.40
2023-01-19T16:30:12.463Z,0.40
2023-01-19T16:32:39.285Z,0.40
2023-01-19T16:35:06.266Z,0.50
2023-01-19T16:37:33.000Z,0.50
2023-01-19T16:39:59.622Z,0.50
2023-01-19T16:42:26.184Z,0.50
2023-01-19T16:44:52.806Z,0.40
2023-01-19T16:47:19.352Z,0.50
2023-01-19T16:49:45.935Z,0.50
2023-01-19T16:52:12.515Z,0.50
2023-01-19T16:54:42.126Z,0.40
2023-01-19T16:57:09.541Z,0.40
2023-01-19T16:59:36.501Z,0.40
2023-01-19T17:02:03.384Z,0.40
2023-01-19T17:04:29.995Z,0.30
2023-01-19T17:06:56.659Z,0.40
2023-01-19T17:09:23.250Z,0.40
2023-01-19T17:11:49.841Z,0.30
2023-01-19T17:14:20.121Z,0.30
2023-01-19T17:16:47.659Z,0.30
2023-01-19T17:19:16.781Z,0.30
2023-01-19T17:21:44.683Z,0.20
2023-01-19T17:24:11.562Z,0.30
2023-01-19T17:26:38.401Z,0.30
2023-01-19T17:29:08.200Z,0.30
2023-01-19T17:31:35.985Z,0.30
2023-01-19T17:34:03.279Z,0.30
2023-01-19T17:36:31.338Z,0.20
2023-01-19T17:38:59.753Z,0.20
2023-01-19T17:41:31.654Z,0.30
2023-01-19T17:44:00.043Z,0.30
2023-01-19T17:46:28.189Z,0.30
2023-01-19T17:48:57.113Z,0.30
2023-01-19T17:51:24.464Z,0.20
2023-01-19T17:53:52.514Z,0.30
2023-01-19T17:56:21.559Z,0.20
2023-01-19T17:58:49.095Z,0.20
2023-01-19T18:01:20.821Z,0.20
2023-01-19T18:03:47.477Z,0.20
2023-01-19T18:06:14.963Z,0.20
2023-01-19T18:08:43.100Z,0.20
2023-01-19T18:11:10.412Z,0.20
2023-01-19T18:13:39.106Z,0.20
2023-01-19T18:16:17.905Z,0.20
2023-01-19T18:18:44.462Z,0.20
2023-01-19T18:21:13.694Z,0.20
2023-01-19T18:23:41.254Z,0.10
2023-01-19T18:26:10.458Z,0.10
2023-01-19T18:28:37.286Z,0.10
2023-01-19T18:31:12.108Z,0.10
2023-01-19T18:33:40.078Z,0.00
2023-01-19T18:36:07.548Z,0.10
2023-01-19T18:38:34.918Z,0.00
2023-01-19T18:41:05.498Z,0.00
2023-01-19T18:43:32.108Z,0.00
2023-01-19T18:45:58.740Z,0.10
2023-01-19T18:48:25.562Z,0.00
2023-01-19T18:50:52.691Z,0.10
2023-01-19T18:53:19.623Z,0.00
2023-01-19T18:56:01.316Z,-0.10
2023-01-19T18:58:28.593Z,-0.10
2023-01-19T19:00:56.217Z,0.00
2023-01-19T19:03:23.277Z,-0.10
2023-01-19T19:05:50.278Z,0.00
2023-01-19T19:08:16.959Z,-0.10
2023-01-19T19:10:44.263Z,-0.10
2023-01-19T19:13:15.741Z,-0.10
2023-01-19T19:15:42.459Z,-0.10
2023-01-19T19:18:09.071Z,-0.10
2023-01-19T19:20:38.652Z,-0.10
2023-01-19T19:23:05.282Z,-0.10
2023-01-19T19:25:32.572Z,-0.10
2023-01-19T19:27:59.245Z,-0.10
2023-01-19T19:30:25.832Z,-0.10
2023-01-19T19:32:53.682Z,-0.10
2023-01-19T19:35:20.606Z,-0.10
2023-01-19T19:37:48.309Z,-0.10
2023-01-19T19:40:15.409Z,-0.10
2023-01-19T19:42:42.255Z,-0.10
2023-01-19T19:45:09.443Z,-0.10
2023-01-19T19:47:36.016Z,-0.10
2023-01-19T19:50:02.612Z,-0.20
2023-01-19T19:52:29.221Z,-0.10
2023-01-19T19:54:55.853Z,-0.10
2023-01-19T19:57:22.397Z,-0.10
2023-01-19T19:59:48.964Z,-0.10
2023-01-19T20:02:15.579Z,-0.10
2023-01-19T20:04:42.216Z,0.00
2023-01-19T20:07:08.829Z,0.00
2023-01-19T20:09:36.444Z,0.00
2023-01-19T20:12:03.074Z,0.00
2023-01-19T20:14:29.666Z,0.00
2023-01-19T20:16:56.281Z,-0.10
2023-01-19T20:19:23.552Z,-0.10
2023-01-19T20:21:50.197Z,-0.10
2023-01-19T20:24:18.986Z,-0.10
2023-01-19T20:26:48.495Z,0.00
2023-01-19T20:29:15.566Z,-0.10
2023-01-19T20:31:45.710Z,-0.10
2023-01-19T20:34:14.976Z,-0.10
2023-01-19T20:36:41.594Z,-0.10
2023-01-19T20:39:08.538Z,-0.10
2023-01-19T20:41:35.949Z,-0.10
2023-01-19T20:44:02.699Z,-0.10
2023-01-19T20:46:29.304Z,-0.10
2023-01-19T20:48:55.865Z,-0.10
2023-01-19T20:51:22.500Z,-0.10
2023-01-19T20:53:49.106Z,0.00
2023-01-19T20:56:15.772Z,-0.10
2023-01-19T20:58:42.574Z,-0.10
2023-01-19T21:01:11.556Z,-0.10
2023-01-19T21:03:38.266Z,-0.10
2023-01-19T21:06:04.984Z,-0.10
2023-01-19T21:08:32.770Z,-0.10
2023-01-19T21:10:59.630Z,-0.10
2023-01-19T21:13:26.592Z,-0.10
2023-01-19T21:15:53.418Z,-0.10
2023-01-19T21:18:20.058Z,-0.10
2023-01-19T21:20:49.622Z,-0.10
2023-01-19T21:23:16.588Z,-0.10
2023-01-19T21:25:54.963Z,-0.10
2023-01-19T21:28:22.409Z,-0.10
2023-01-19T21:30:50.165Z,0.00
2023-01-19T21:33:17.631Z,0.00
2023-01-19T21:35:57.453Z,0.00
2023-01-19T21:38:25.661Z,0.00
2023-01-19T21:40:52.370Z,0.00
2023-01-19T21:43:19.298Z,0.00
2023-01-19T21:45:47.089Z,-0.10
2023-01-19T21:48:14.015Z,0.00
2023-01-19T21:50:40.656Z,0.00
2023-01-19T21:53:07.393Z,-0.10
2023-01-19T21:55:34.189Z,0.00
2023-01-19T21:58:01.084Z,0.00
2023-01-19T22:00:28.907Z,0.00
2023-01-19T22:03:03.728Z,0.00
2023-01-19T22:05:36.349Z,0.00
2023-01-19T22:08:04.091Z,0.00
2023-01-19T22:10:30.647Z,0.00
2023-01-19T22:12:57.307Z,0.00
2023-01-19T22:15:23.859Z,-0.10
2023-01-19T22:17:50.442Z,-0.10
2023-01-19T22:20:17.143Z,0.00
2023-01-19T22:22:43.726Z,0.00
2023-01-19T22:25:10.387Z,0.00
2023-01-19T22:27:36.944Z,0.00
2023-01-19T22:30:03.813Z,-0.10
2023-01-19T22:32:31.260Z,0.00
2023-01-19T22:34:57.819Z,0.00
2023-01-19T22:37:24.424Z,-0.10
2023-01-19T22:39:52.555Z,-0.10
2023-01-19T22:42:19.108Z,-0.10
2023-01-19T22:44:45.633Z,0.00
2023-01-19T22:47:12.177Z,0.00
2023-01-19T22:49:38.730Z,-0.10
2023-01-19T22:52:05.385Z,-0.10
2023-01-19T22:54:31.985Z,-0.10
2023-01-19T22:56:58.691Z,-0.10
2023-01-19T22:59:25.232Z,-0.10
2023-01-19T23:01:51.910Z,-0.10
2023-01-19T23:04:18.567Z,-0.10
2023-01-19T23:06:45.574Z,-0.10
2023-01-19T23:09:14.275Z,-0.10
2023-01-19T23:11:43.461Z,-0.10
2023-01-19T23:14:14.667Z,-0.10
2023-01-19T23:16:41.411Z,-0.10
2023-01-19T23:19:08.063Z,-0.10
2023-01-19T23:21:52.886Z,-0.10
2023-01-19T23:24:19.772Z,-0.20
2023-01-19T23:26:48.189Z,-0.20
2023-01-19T23:29:15.436Z,-0.10
2023-01-19T23:31:47.524Z,-0.10
2023-01-19T23:34:15.139Z,-0.10
2023-01-19T23:36:42.998Z,-0.20
2023-01-19T23:39:20.804Z,-0.10
2023-01-19T23:41:48.141Z,-0.10
2023-01-19T23:44:15.217Z,-0.20
2023-01-19T23:46:41.785Z,-0.20
2023-01-19T23:49:08.339Z,-0.20
2023-01-19T23:51:35.007Z,-0.20
2023-01-19T23:54:02.033Z,-0.30
2023-01-19T23:56:33.574Z,-0.30
2023-01-19T23:59:01.409Z,-0.40
